Time;durP1;ratioP1;P1;durP2;ratioP2;P2;SDS_P1;SDS_P2;PMS_P1;PMS_P2;Temp;Humidity;BMP_temperature;BMP_pressure;BME280_temperature;BME280_humidity;BME280_pressure;Samples;Min_cycle;Max_cycle;Signal;HPM_P1;HPM_P2
2022/03/28 00:00:35;;;;;;;10.33;8.67;;;13.10;53.60;;;;;;5026027;28;20189;-89
2022/03/28 00:03:02;;;;;;;11.23;10.03;;;13.10;53.50;;;;;;5024879;28;20185;-88
2022/03/28 00:05:27;;;;;;;10.83;9.73;;;13.20;53.30;;;;;;5023099;28;20186;-88
2022/03/28 00:07:53;;;;;;;10.53;9.10;;;13.10;53.70;;;;;;5025447;28;20210;-89
2022/03/28 00:10:19;;;;;;;11.37;9.77;;;13.00;53.60;;;;;;5008650;28;20769;-88
2022/03/28 00:12:45;;;;;;;10.73;9.63;;;13.10;53.40;;;;;;5016495;28;20194;-90
2022/03/28 00:15:11;;;;;;;11.00;9.80;;;13.20;53.10;;;;;;5028533;28;20271;-88
2022/03/28 00:17:38;;;;;;;11.97;10.27;;;13.20;53.00;;;;;;5007043;28;20305;-91
2022/03/28 00:20:06;;;;;;;10.57;9.47;;;13.10;53.50;;;;;;5008486;28;20210;-88
2022/03/28 00:22:33;;;;;;;10.03;9.03;;;13.00;53.70;;;;;;5006835;28;20214;-87
2022/03/28 00:24:58;;;;;;;10.10;9.10;;;13.00;53.60;;;;;;5007829;28;20223;-87
2022/03/28 00:27:25;;;;;;;10.50;9.50;;;13.00;53.40;;;;;;5015719;28;20213;-89
2022/03/28 00:29:50;;;;;;;11.80;10.57;;;13.00;53.40;;;;;;5013177;28;20212;-91
2022/03/28 00:32:16;;;;;;;11.03;9.87;;;13.10;53.50;;;;;;5007421;28;20210;-88
2022/03/28 00:34:42;;;;;;;10.50;9.43;;;13.00;53.30;;;;;;5007636;28;20245;-88
2022/03/28 00:37:07;;;;;;;10.57;9.10;;;13.00;53.60;;;;;;5016016;28;20260;-89
2022/03/28 00:39:33;;;;;;;9.70;8.73;;;12.80;54.20;;;;;;5018725;28;20525;-88
2022/03/28 00:41:59;;;;;;;10.03;9.13;;;12.80;54.10;;;;;;5018142;28;20216;-88
2022/03/28 00:44:24;;;;;;;13.00;9.70;;;12.80;53.80;;;;;;5005478;28;20195;-88
2022/03/28 00:46:50;;;;;;;10.57;8.90;;;12.70;54.20;;;;;;5020234;28;20959;-88
2022/03/28 00:49:16;;;;;;;12.77;9.63;;;12.60;54.30;;;;;;5006382;28;20217;-87
2022/03/28 00:51:43;;;;;;;12.73;9.43;;;12.50;54.80;;;;;;5021996;28;20205;-88
2022/03/28 00:54:09;;;;;;;10.10;9.10;;;12.40;55.00;;;;;;5032383;28;20201;-88
2022/03/28 00:56:37;;;;;;;11.33;9.70;;;12.40;55.40;;;;;;5029410;28;20713;-89
2022/03/28 00:59:04;;;;;;;10.63;9.17;;;12.00;56.40;;;;;;5046125;28;20183;-87
2022/03/28 01:01:30;;;;;;;10.20;9.20;;;11.90;56.80;;;;;;5046952;28;20199;-88
2022/03/28 01:03:56;;;;;;;10.53;9.53;;;12.00;56.50;;;;;;5046663;28;20192;-89
2022/03/28 01:06:22;;;;;;;10.47;8.93;;;12.00;56.00;;;;;;5031316;28;20232;-88
2022/03/28 01:08:48;;;;;;;9.30;8.33;;;12.10;56.00;;;;;;5047460;28;20691;-87
2022/03/28 01:11:17;;;;;;;12.97;10.30;;;11.90;56.00;;;;;;5030444;28;20244;-89
2022/03/28 01:13:43;;;;;;;10.60;9.47;;;11.90;56.50;;;;;;4994064;28;20186;-88
2022/03/28 01:16:09;;;;;;;10.70;9.60;;;11.80;56.60;;;;;;5010053;28;20232;-88
2022/03/28 01:18:35;;;;;;;10.50;9.50;;;11.90;56.40;;;;;;5028819;28;20217;-89
2022/03/28 01:21:02;;;;;;;10.17;9.10;;;11.90;56.40;;;;;;5029528;28;20185;-88
2022/03/28 01:23:28;;;;;;;9.27;8.10;;;11.90;56.70;;;;;;5028612;28;20198;-90
2022/03/28 01:25:56;;;;;;;10.37;9.27;;;11.80;56.30;;;;;;5027254;28;20213;-88
2022/03/28 01:28:23;;;;;;;9.83;8.83;;;11.80;56.30;;;;;;5026754;28;20199;-88
2022/03/28 01:30:50;;;;;;;10.90;9.80;;;11.90;56.20;;;;;;5028613;28;20176;-87
2022/03/28 01:33:16;;;;;;;11.57;9.63;;;12.00;55.90;;;;;;5025044;28;20206;-89
2022/03/28 01:35:44;;;;;;;10.27;9.27;;;11.80;56.20;;;;;;5015157;28;20215;-89
2022/03/28 01:38:14;;;;;;;10.63;9.40;;;11.80;56.00;;;;;;5010173;28;20215;-90
2022/03/28 01:40:45;;;;;;;10.67;8.80;;;11.80;55.90;;;;;;5002282;28;20638;-90
2022/03/28 01:43:12;;;;;;;9.67;8.77;;;11.80;55.80;;;;;;5005300;28;20196;-89
2022/03/28 01:45:38;;;;;;;10.20;8.53;;;11.80;56.00;;;;;;5031917;28;20194;-89
2022/03/28 01:48:05;;;;;;;11.67;9.37;;;11.70;56.00;;;;;;5024281;28;20202;-89
2022/03/28 01:50:31;;;;;;;10.53;9.53;;;11.70;56.00;;;;;;5005146;28;20786;-89
2022/03/28 01:52:57;;;;;;;14.70;9.27;;;11.70;56.00;;;;;;5014909;28;20277;-88
2022/03/28 01:55:25;;;;;;;10.53;9.10;;;11.70;55.80;;;;;;5017206;28;20222;-87
2022/03/28 01:57:52;;;;;;;10.77;9.70;;;11.60;56.10;;;;;;5009823;28;20194;-88
2022/03/28 02:00:19;;;;;;;12.20;10.27;;;11.60;56.10;;;;;;5012609;28;20203;-89
2022/03/28 02:02:48;;;;;;;12.67;10.67;;;11.70;56.00;;;;;;5012949;28;20270;-89
2022/03/28 02:05:15;;;;;;;13.07;9.20;;;11.60;56.00;;;;;;5010688;28;20193;-89
2022/03/28 02:07:46;;;;;;;9.90;8.90;;;11.50;56.30;;;;;;5003679;28;20219;-88
2022/03/28 02:10:15;;;;;;;11.33;9.50;;;11.50;56.40;;;;;;5013279;28;20242;-88
2022/03/28 02:12:41;;;;;;;12.30;10.13;;;11.50;56.20;;;;;;5000880;28;20242;-88
2022/03/28 02:15:08;;;;;;;10.57;9.57;;;11.60;55.70;;;;;;5018391;28;20201;-88
2022/03/28 02:17:39;;;;;;;11.50;10.30;;;11.60;55.80;;;;;;5017063;28;20199;-88
2022/03/28 02:20:07;;;;;;;10.53;9.53;;;11.70;56.00;;;;;;5010618;28;20564;-88
2022/03/28 02:22:36;;;;;;;11.40;10.20;;;11.60;55.90;;;;;;5001159;28;20187;-88
2022/03/28 02:25:04;;;;;;;12.07;10.07;;;11.50;56.30;;;;;;5013935;28;20209;-88
2022/03/28 02:27:29;;;;;;;11.83;10.07;;;11.20;56.90;;;;;;5007109;28;20269;-88
2022/03/28 02:29:55;;;;;;;10.27;9.27;;;11.00;58.10;;;;;;4999008;28;20239;-89
2022/03/28 02:32:21;;;;;;;10.47;9.37;;;11.10;57.70;;;;;;5003604;28;20233;-88
2022/03/28 02:34:47;;;;;;;11.43;9.90;;;11.10;58.00;;;;;;5002401;28;20193;-88
2022/03/28 02:37:12;;;;;;;15.17;11.33;;;11.00;58.00;;;;;;5010356;28;20210;-88
2022/03/28 02:39:38;;;;;;;11.27;10.17;;;11.10;58.50;;;;;;5002540;28;20190;-90
2022/03/28 02:42:04;;;;;;;11.03;9.93;;;11.10;58.50;;;;;;5006583;28;20210;-88
2022/03/28 02:44:30;;;;;;;11.17;10.07;;;11.00;57.70;;;;;;5006850;28;20186;-88
2022/03/28 02:46:56;;;;;;;11.07;9.90;;;10.90;58.20;;;;;;5000996;28;20691;-88
2022/03/28 02:49:22;;;;;;;11.43;10.30;;;10.90;58.20;;;;;;5003731;28;20209;-88
2022/03/28 02:51:48;;;;;;;14.33;11.00;;;10.90;58.10;;;;;;5013446;28;20276;-89
2022/03/28 02:54:14;;;;;;;11.47;10.27;;;10.90;57.90;;;;;;5011086;28;20185;-88
2022/03/28 02:56:40;;;;;;;12.37;11.10;;;10.70;58.60;;;;;;5006661;28;20206;-88
2022/03/28 02:59:06;;;;;;;11.87;10.67;;;10.80;58.50;;;;;;5014427;28;20292;-88
2022/03/28 03:01:32;;;;;;;12.70;10.37;;;10.60;59.40;;;;;;5004298;28;20190;-88
2022/03/28 03:03:57;;;;;;;11.93;10.53;;;10.60;59.00;;;;;;5006939;28;20189;-88
2022/03/28 03:06:23;;;;;;;12.97;10.50;;;10.60;58.90;;;;;;5006358;28;20231;-88
2022/03/28 03:08:50;;;;;;;12.10;10.83;;;10.50;59.50;;;;;;5009811;28;20213;-88
2022/03/28 03:11:16;;;;;;;14.73;11.30;;;10.50;59.20;;;;;;5005694;28;20209;-88
2022/03/28 03:13:42;;;;;;;13.80;11.87;;;10.50;58.90;;;;;;5011502;28;20198;-88
2022/03/28 03:16:08;;;;;;;12.53;10.70;;;10.40;58.40;;;;;;5005641;28;20684;-88
2022/03/28 03:18:33;;;;;;;14.00;10.83;;;10.30;59.70;;;;;;5002863;28;20193;-88
2022/03/28 03:20:59;;;;;;;12.23;10.93;;;10.30;59.60;;;;;;5009940;28;20182;-88
2022/03/28 03:23:26;;;;;;;11.57;10.23;;;10.30;59.80;;;;;;5002790;28;20261;-88
2022/03/28 03:25:52;;;;;;;12.83;10.47;;;10.30;59.50;;;;;;5005873;28;20217;-88
2022/03/28 03:28:17;;;;;;;12.10;10.63;;;10.20;60.00;;;;;;4999464;28;20186;-88
2022/03/28 03:30:43;;;;;;;11.57;10.43;;;10.20;59.30;;;;;;5000721;28;20210;-87
2022/03/28 03:33:09;;;;;;;11.90;10.67;;;10.20;59.60;;;;;;4998376;28;20187;-87
2022/03/28 03:35:35;;;;;;;11.37;10.27;;;10.20;59.20;;;;;;5002486;28;20232;-88
2022/03/28 03:38:01;;;;;;;10.90;9.90;;;10.20;59.60;;;;;;5018828;28;20174;-87
2022/03/28 03:40:26;;;;;;;11.47;10.27;;;10.20;59.30;;;;;;5017782;28;20723;-87
2022/03/28 03:42:52;;;;;;;11.20;10.13;;;10.20;59.50;;;;;;5008073;28;20249;-88
2022/03/28 03:45:18;;;;;;;11.77;10.67;;;10.20;59.30;;;;;;5022399;28;20186;-88
2022/03/28 03:47:43;;;;;;;13.37;10.60;;;10.20;59.00;;;;;;5020196;28;20256;-88
2022/03/28 03:50:10;;;;;;;11.83;10.70;;;10.20;59.00;;;;;;4994776;28;20214;-87
2022/03/28 03:52:36;;;;;;;12.00;10.90;;;10.20;58.80;;;;;;4998505;28;20210;-87
2022/03/28 03:55:03;;;;;;;12.80;10.70;;;10.10;59.10;;;;;;4999951;28;20198;-88
2022/03/28 03:57:29;;;;;;;15.03;10.30;;;10.20;59.00;;;;;;4996578;28;20201;-90
2022/03/28 03:59:54;;;;;;;12.03;10.73;;;10.10;59.10;;;;;;5001988;28;20198;-89
2022/03/28 04:02:20;;;;;;;13.67;11.70;;;10.00;59.40;;;;;;5009064;28;20205;-89
2022/03/28 04:04:46;;;;;;;13.33;11.83;;;10.00;59.50;;;;;;5013655;28;20197;-89
2022/03/28 04:07:11;;;;;;;12.87;11.03;;;9.90;59.60;;;;;;5025884;28;20238;-88
2022/03/28 04:09:37;;;;;;;12.77;10.60;;;9.80;59.80;;;;;;5025871;28;20229;-89
2022/03/28 04:12:03;;;;;;;12.77;11.50;;;9.80;60.10;;;;;;5022100;28;20182;-89
2022/03/28 04:14:29;;;;;;;12.40;11.10;;;9.70;60.40;;;;;;5033504;28;20404;-90
2022/03/28 04:16:55;;;;;;;11.87;10.67;;;9.70;60.70;;;;;;5031591;28;20193;-89
2022/03/28 04:19:21;;;;;;;13.73;11.70;;;9.70;60.90;;;;;;5044822;28;20170;-89
2022/03/28 04:21:48;;;;;;;13.00;11.33;;;9.70;60.60;;;;;;5017691;28;20259;-89
2022/03/28 04:24:14;;;;;;;15.13;10.90;;;9.70;60.20;;;;;;5005372;28;20194;-89
2022/03/28 04:26:39;;;;;;;12.40;11.13;;;9.60;59.70;;;;;;5008230;28;20680;-89
2022/03/28 04:29:05;;;;;;;12.30;11.00;;;9.50;60.40;;;;;;5006654;28;20218;-90
2022/03/28 04:31:31;;;;;;;13.67;11.73;;;9.50;60.50;;;;;;5011341;28;20193;-90
2022/03/28 04:33:56;;;;;;;12.40;11.07;;;9.50;60.00;;;;;;5017025;28;20220;-89
2022/03/28 04:36:23;;;;;;;16.83;11.63;;;9.40;60.80;;;;;;5009975;28;20210;-89
2022/03/28 04:38:49;;;;;;;13.20;10.80;;;9.40;60.90;;;;;;5003651;28;20196;-90
2022/03/28 04:41:15;;;;;;;14.40;11.30;;;9.40;61.00;;;;;;5014133;28;20191;-89
2022/03/28 04:43:40;;;;;;;12.33;11.00;;;9.40;60.40;;;;;;4997597;28;20179;-89
2022/03/28 04:46:06;;;;;;;12.17;10.27;;;9.50;60.20;;;;;;5011602;28;20581;-89
2022/03/28 04:48:32;;;;;;;12.47;10.43;;;9.50;60.50;;;;;;5012087;28;20190;-91
2022/03/28 04:50:57;;;;;;;13.80;10.30;;;9.60;61.10;;;;;;5004779;28;20193;-89
2022/03/28 04:53:23;;;;;;;11.73;10.50;;;9.50;60.70;;;;;;5009461;28;20229;-90
2022/03/28 04:55:49;;;;;;;11.87;9.83;;;9.50;60.90;;;;;;5011223;28;20241;-89
2022/03/28 04:58:16;;;;;;;15.40;10.33;;;9.50;60.70;;;;;;5014986;28;20185;-89
2022/03/28 05:00:43;;;;;;;13.63;10.43;;;9.50;60.50;;;;;;5016345;28;20786;-90
2022/03/28 05:03:08;;;;;;;12.83;9.87;;;9.40;60.50;;;;;;5011312;28;20682;-89
2022/03/28 05:05:34;;;;;;;11.87;9.50;;;9.40;60.70;;;;;;5015571;28;20185;-89
2022/03/28 05:08:00;;;;;;;11.17;9.47;;;9.40;60.60;;;;;;5011689;28;20898;-89
2022/03/28 05:10:26;;;;;;;12.37;10.07;;;9.50;60.50;;;;;;5007797;28;20248;-89
2022/03/28 05:12:51;;;;;;;18.90;9.97;;;9.50;60.50;;;;;;5014434;28;20197;-90
2022/03/28 05:15:17;;;;;;;20.83;10.77;;;9.50;60.10;;;;;;5010951;28;20619;-89
2022/03/28 05:17:43;;;;;;;12.07;9.20;;;9.30;60.40;;;;;;5013567;28;20209;-90
2022/03/28 05:20:09;;;;;;;17.13;9.50;;;9.40;60.50;;;;;;5006279;28;20190;-90
2022/03/28 05:22:35;;;;;;;16.20;9.70;;;9.40;60.00;;;;;;5010452;28;20708;-89
2022/03/28 05:25:02;;;;;;;16.27;9.73;;;9.40;60.30;;;;;;5004713;28;20186;-88
2022/03/28 05:27:28;;;;;;;14.73;9.00;;;9.30;60.10;;;;;;5002474;28;20697;-88
2022/03/28 05:29:54;;;;;;;12.67;9.60;;;9.40;60.20;;;;;;5003918;28;20213;-88
2022/03/28 05:32:20;;;;;;;16.60;9.83;;;9.40;59.80;;;;;;5020171;28;20177;-89
2022/03/28 05:34:45;;;;;;;13.37;9.93;;;9.40;59.80;;;;;;5015103;28;20658;-87
2022/03/28 05:37:14;;;;;;;12.60;9.47;;;9.40;59.60;;;;;;5028804;28;20205;-89
2022/03/28 05:39:41;;;;;;;10.73;8.33;;;9.40;59.80;;;;;;5016595;28;20190;-88
2022/03/28 05:42:07;;;;;;;11.93;9.10;;;9.40;59.90;;;;;;5006846;28;20221;-88
2022/03/28 05:44:34;;;;;;;13.50;9.10;;;9.30;60.30;;;;;;5009434;28;20832;-88
2022/03/28 05:47:00;;;;;;;12.37;9.23;;;9.30;60.40;;;;;;5014162;28;20217;-88
2022/03/28 05:49:25;;;;;;;20.20;10.17;;;9.40;60.40;;;;;;5014187;28;20590;-88
2022/03/28 05:51:52;;;;;;;14.77;9.20;;;9.40;60.30;;;;;;4995264;28;20657;-89
2022/03/28 05:54:19;;;;;;;23.63;10.13;;;9.30;61.20;;;;;;4999982;28;20190;-88
2022/03/28 05:56:45;;;;;;;17.30;10.07;;;9.40;60.20;;;;;;5011961;28;20273;-88
2022/03/28 05:59:11;;;;;;;17.33;9.67;;;9.40;60.40;;;;;;5015354;28;20308;-90
2022/03/28 06:01:37;;;;;;;14.90;9.90;;;9.40;60.70;;;;;;5013797;28;20194;-88
2022/03/28 06:04:04;;;;;;;16.93;10.60;;;9.50;60.90;;;;;;5023897;28;20241;-88
2022/03/28 06:06:31;;;;;;;17.70;11.63;;;9.50;60.90;;;;;;4998763;28;20233;-88
2022/03/28 06:08:57;;;;;;;14.10;10.77;;;9.50;60.60;;;;;;5001322;28;20206;-88
2022/03/28 06:11:22;;;;;;;11.13;8.50;;;9.60;60.60;;;;;;4996771;28;20175;-89
2022/03/28 06:13:48;;;;;;;14.37;9.47;;;9.60;60.70;;;;;;5011406;28;20194;-88
2022/03/28 06:16:14;;;;;;;14.80;9.53;;;9.50;60.50;;;;;;5003436;28;20361;-89
2022/03/28 06:18:40;;;;;;;14.27;9.80;;;9.50;60.70;;;;;;5000289;28;20265;-88
2022/03/28 06:21:07;;;;;;;15.53;9.30;;;9.50;61.00;;;;;;4995621;28;20395;-88
2022/03/28 06:23:34;;;;;;;18.83;10.43;;;9.50;61.20;;;;;;5000234;28;20208;-89
2022/03/28 06:26:00;;;;;;;15.57;9.97;;;9.50;61.30;;;;;;5011713;28;20202;-88
2022/03/28 06:28:25;;;;;;;21.60;10.13;;;9.40;61.80;;;;;;5006415;28;20191;-88
2022/03/28 06:30:51;;;;;;;13.20;9.97;;;9.40;62.00;;;;;;5014997;28;20233;-88
2022/03/28 06:33:17;;;;;;;14.37;9.80;;;9.40;61.60;;;;;;5004124;28;20207;-90
2022/03/28 06:35:43;;;;;;;13.50;9.67;;;9.50;61.70;;;;;;5011163;28;20217;-88
2022/03/28 06:38:09;;;;;;;14.00;10.37;;;9.70;61.30;;;;;;5011521;28;20221;-88
2022/03/28 06:40:35;;;;;;;12.90;10.50;;;9.70;60.90;;;;;;5009564;28;20196;-87
2022/03/28 06:43:01;;;;;;;12.40;9.53;;;9.80;61.00;;;;;;5018935;28;20236;-88
2022/03/28 06:45:26;;;;;;;12.47;9.50;;;9.80;60.90;;;;;;5011269;28;20543;-88
2022/03/28 06:47:52;;;;;;;12.17;10.33;;;9.90;61.00;;;;;;5003717;28;20541;-88
2022/03/28 06:50:20;;;;;;;12.53;10.47;;;9.90;61.40;;;;;;5012013;28;20213;-90
2022/03/28 06:52:45;;;;;;;15.47;11.30;;;9.90;61.20;;;;;;5016112;28;20190;-88
2022/03/28 06:55:11;;;;;;;19.63;12.43;;;9.90;61.70;;;;;;5011840;28;20200;-89
2022/03/28 06:57:38;;;;;;;15.33;12.00;;;9.90;62.10;;;;;;5005153;28;20476;-89
2022/03/28 07:00:06;;;;;;;15.30;11.77;;;9.90;62.80;;;;;;5003640;28;20214;-88
2022/03/28 07:02:32;;;;;;;16.60;11.93;;;9.80;62.90;;;;;;5004921;28;20201;-88
2022/03/28 07:04:57;;;;;;;19.33;11.90;;;9.80;64.30;;;;;;5014645;28;20198;-88
2022/03/28 07:07:24;;;;;;;17.10;11.93;;;9.40;64.80;;;;;;5003505;28;20217;-89
2022/03/28 07:09:50;;;;;;;16.63;11.70;;;9.30;63.80;;;;;;5003111;28;20214;-88
2022/03/28 07:12:16;;;;;;;14.47;12.30;;;9.20;64.20;;;;;;5004714;28;20181;-88
2022/03/28 07:14:42;;;;;;;17.23;12.10;;;9.10;64.90;;;;;;5015521;28;20213;-88
2022/03/28 07:17:09;;;;;;;14.50;11.77;;;9.10;65.90;;;;;;5006497;28;20272;-89
2022/03/28 07:19:36;;;;;;;19.50;11.73;;;9.00;66.00;;;;;;5012373;28;20185;-89
2022/03/28 07:22:02;;;;;;;17.50;12.90;;;9.00;68.20;;;;;;5004079;28;20182;-88
2022/03/28 07:24:28;;;;;;;14.93;12.63;;;8.90;69.20;;;;;;5018150;28;20192;-89
2022/03/28 07:26:54;;;;;;;14.67;12.17;;;8.90;67.80;;;;;;5029546;28;20193;-88
2022/03/28 07:29:20;;;;;;;14.93;12.60;;;9.20;67.00;;;;;;5038965;28;20189;-88
2022/03/28 07:31:49;;;;;;;13.17;11.80;;;9.40;65.90;;;;;;5042048;28;20197;-88
2022/03/28 07:34:30;;;;;;;13.07;11.50;;;9.50;65.70;;;;;;5015474;28;20705;-89
2022/03/28 07:36:57;;;;;;;17.20;12.50;;;9.60;66.50;;;;;;5004767;28;20217;-88
2022/03/28 07:39:23;;;;;;;16.87;12.50;;;9.70;65.30;;;;;;5013341;28;20649;-89
2022/03/28 07:41:49;;;;;;;15.07;11.83;;;9.70;64.70;;;;;;5008468;28;20182;-89
2022/03/28 07:44:16;;;;;;;17.57;11.33;;;9.70;66.90;;;;;;5005853;28;20270;-89
2022/03/28 07:46:43;;;;;;;20.27;13.00;;;9.70;65.20;;;;;;4999116;28;20214;-89
2022/03/28 07:49:09;;;;;;;14.40;12.20;;;9.80;66.20;;;;;;5004945;28;20285;-88
2022/03/28 07:51:35;;;;;;;15.50;12.60;;;10.20;63.50;;;;;;5019028;28;20318;-89
2022/03/28 07:54:01;;;;;;;15.07;12.97;;;10.20;64.00;;;;;;5031068;28;20170;-88
2022/03/28 07:56:27;;;;;;;14.70;12.67;;;10.40;64.50;;;;;;5027809;28;20182;-89
2022/03/28 07:58:53;;;;;;;16.93;11.77;;;10.60;62.30;;;;;;5022467;28;20186;-89
2022/03/28 08:01:18;;;;;;;14.43;12.90;;;10.70;62.70;;;;;;5017370;28;20181;-88
2022/03/28 08:03:44;;;;;;;22.10;12.97;;;10.90;62.30;;;;;;5003112;28;20186;-88
2022/03/28 08:06:10;;;;;;;14.80;12.37;;;11.00;60.90;;;;;;5005471;28;20218;-88
2022/03/28 08:08:36;;;;;;;15.10;12.93;;;11.10;61.00;;;;;;5008203;28;20236;-90
2022/03/28 08:11:05;;;;;;;16.60;12.53;;;11.20;60.60;;;;;;5014974;28;20239;-87
2022/03/28 08:13:31;;;;;;;16.07;12.93;;;11.30;58.80;;;;;;5004623;28;20264;-88
2022/03/28 08:15:57;;;;;;;17.37;14.13;;;11.30;58.60;;;;;;5008421;28;20743;-88
2022/03/28 08:18:22;;;;;;;18.93;13.23;;;11.30;60.50;;;;;;5009751;28;20252;-87
2022/03/28 08:20:48;;;;;;;19.07;13.13;;;11.40;59.60;;;;;;5027416;28;20243;-90
2022/03/28 08:23:16;;;;;;;18.13;13.10;;;11.60;58.20;;;;;;5022791;28;20529;-89
2022/03/28 08:25:42;;;;;;;21.10;14.83;;;11.70;58.50;;;;;;5029560;28;20220;-88
2022/03/28 08:28:08;;;;;;;21.07;13.87;;;11.70;57.10;;;;;;5020612;28;20194;-89
2022/03/28 08:30:35;;;;;;;25.20;15.03;;;12.00;55.20;;;;;;5005867;28;20210;-87
2022/03/28 08:33:01;;;;;;;19.80;14.50;;;12.20;54.30;;;;;;5006790;28;20182;-90
2022/03/28 08:35:27;;;;;;;19.17;14.43;;;12.40;54.50;;;;;;5015813;28;20196;-88
2022/03/28 08:37:53;;;;;;;19.07;15.10;;;12.30;53.90;;;;;;5017459;28;20663;-88
2022/03/28 08:40:19;;;;;;;17.43;13.63;;;12.30;55.50;;;;;;5016791;28;20695;-88
2022/03/28 08:42:46;;;;;;;16.63;13.97;;;12.50;52.90;;;;;;5015558;28;20209;-89
2022/03/28 08:45:14;;;;;;;19.67;13.07;;;12.60;52.80;;;;;;4997376;28;20731;-88
2022/03/28 08:47:42;;;;;;;20.73;14.37;;;12.80;52.70;;;;;;5011567;28;20284;-88
2022/03/28 08:50:12;;;;;;;17.73;13.87;;;12.90;52.20;;;;;;5006553;28;20305;-87
2022/03/28 08:52:41;;;;;;;24.07;15.30;;;13.00;52.30;;;;;;5003038;28;20826;-87
2022/03/28 08:55:08;;;;;;;23.87;15.00;;;13.10;52.70;;;;;;5005090;28;20310;-87
2022/03/28 08:57:34;;;;;;;19.13;14.10;;;13.30;52.40;;;;;;5009289;28;20214;-88
2022/03/28 09:00:00;;;;;;;20.60;15.27;;;13.50;51.50;;;;;;5008898;28;20195;-88
2022/03/28 09:02:49;;;;;;;21.27;14.20;;;13.50;50.80;;;;;;5016451;28;20667;-90
2022/03/28 09:05:17;;;;;;;23.60;14.97;;;13.70;51.80;;;;;;5009335;28;20189;-87
2022/03/28 09:07:44;;;;;;;19.97;15.40;;;13.80;52.00;;;;;;5001322;28;20219;-87
2022/03/28 09:10:15;;;;;;;16.63;14.83;;;13.80;52.50;;;;;;5001365;28;20212;-88
2022/03/28 09:13:08;;;;;;;16.57;14.70;;;13.90;51.20;;;;;;4998318;28;20178;-88
2022/03/28 09:15:46;;;;;;;20.67;14.97;;;14.10;49.90;;;;;;5004525;28;20208;-88
2022/03/28 09:18:33;;;;;;;17.33;13.90;;;14.10;51.80;;;;;;5019274;28;20587;-88
2022/03/28 09:21:12;;;;;;;22.83;15.47;;;14.30;51.80;;;;;;5033557;28;20263;-87
2022/03/28 09:23:49;;;;;;;19.40;15.83;;;14.60;49.10;;;;;;5017075;28;20186;-87
2022/03/28 09:26:20;;;;;;;20.47;16.20;;;14.80;48.40;;;;;;5002488;28;20757;-87
2022/03/28 09:28:56;;;;;;;18.33;15.30;;;15.00;46.80;;;;;;5004442;28;20196;-88
2022/03/28 09:31:44;;;;;;;20.83;15.70;;;15.00;46.20;;;;;;5010864;28;20181;-89
2022/03/28 09:34:17;;;;;;;21.93;15.97;;;15.00;45.90;;;;;;4997777;28;20175;-88
2022/03/28 09:36:50;;;;;;;20.10;16.00;;;15.20;46.00;;;;;;4996638;28;20245;-89
2022/03/28 09:39:19;;;;;;;18.43;15.40;;;15.30;47.00;;;;;;5009299;28;20181;-88
2022/03/28 09:42:07;;;;;;;17.27;15.47;;;15.30;48.20;;;;;;5018123;28;20195;-88
2022/03/28 09:44:49;;;;;;;23.50;16.37;;;15.40;46.50;;;;;;5008453;28;20209;-90
2022/03/28 09:47:19;;;;;;;18.83;15.57;;;15.70;46.60;;;;;;4988175;28;20234;-87
2022/03/28 09:49:46;;;;;;;20.73;16.07;;;16.00;45.20;;;;;;5000202;28;20215;-89
2022/03/28 09:52:17;;;;;;;21.77;16.60;;;15.90;45.40;;;;;;5017097;28;20823;-88
2022/03/28 09:54:51;;;;;;;20.43;16.43;;;16.20;44.80;;;;;;5015144;28;20188;-89
2022/03/28 09:57:20;;;;;;;17.47;15.60;;;16.30;42.70;;;;;;5001030;28;20336;-88
2022/03/28 09:59:46;;;;;;;21.17;16.67;;;16.50;43.80;;;;;;4998840;28;20201;-88
2022/03/28 10:02:21;;;;;;;22.63;16.70;;;16.40;44.00;;;;;;4984894;28;20197;-88
2022/03/28 10:04:50;;;;;;;20.43;16.40;;;16.50;42.90;;;;;;5008411;28;20193;-88
2022/03/28 10:07:16;;;;;;;22.77;16.37;;;16.70;42.60;;;;;;5018966;28;20695;-88
2022/03/28 10:09:42;;;;;;;18.87;16.10;;;17.00;41.70;;;;;;5012524;28;20216;-88
2022/03/28 10:12:08;;;;;;;21.30;16.57;;;17.10;41.60;;;;;;5013248;28;20592;-88
2022/03/28 10:14:35;;;;;;;28.63;16.47;;;17.30;41.40;;;;;;5013402;28;20657;-88
2022/03/28 10:17:03;;;;;;;19.57;16.00;;;17.40;41.00;;;;;;5014064;28;20255;-88
2022/03/28 10:19:36;;;;;;;22.70;16.17;;;17.60;40.30;;;;;;5013328;28;20221;-89
2022/03/28 10:22:06;;;;;;;22.80;15.90;;;17.80;39.70;;;;;;5005159;28;20187;-90
2022/03/28 10:24:34;;;;;;;21.47;16.07;;;17.90;38.80;;;;;;4997475;28;20274;-85
2022/03/28 10:27:02;;;;;;;22.03;17.37;;;17.90;39.20;;;;;;5005952;28;20206;-89
2022/03/28 10:29:40;;;;;;;19.33;17.10;;;18.10;39.20;;;;;;5014207;28;20215;-89
2022/03/28 10:32:16;;;;;;;22.47;17.73;;;18.00;38.40;;;;;;5007092;28;20747;-89
2022/03/28 10:34:46;;;;;;;21.83;16.90;;;18.10;39.40;;;;;;5002127;28;20182;-87
2022/03/28 10:37:31;;;;;;;19.77;16.53;;;18.00;39.40;;;;;;5009047;28;20202;-89
2022/03/28 10:40:18;;;;;;;23.73;17.17;;;18.50;39.20;;;;;;5006782;28;20661;-89
2022/03/28 10:42:53;;;;;;;23.00;16.73;;;18.90;36.90;;;;;;5008235;28;20185;-88
2022/03/28 10:45:55;;;;;;;24.23;16.57;;;18.90;37.10;;;;;;5000432;28;20216;-87
2022/03/28 10:48:42;;;;;;;24.93;17.13;;;18.90;36.40;;;;;;5005169;28;20215;-86
2022/03/28 10:51:18;;;;;;;20.57;17.20;;;19.30;35.60;;;;;;4999528;28;20193;-87
2022/03/28 10:54:04;;;;;;;19.95;17.38;;;19.60;35.70;;;;;;5000376;28;20818;-87
2022/03/28 10:56:43;;;;;;;24.45;17.55;;;19.80;35.20;;;;;;5000767;28;20206;-87
2022/03/28 10:59:11;;;;;;;23.13;16.80;;;20.10;34.40;;;;;;5002208;28;20248;-87
2022/03/28 11:01:40;;;;;;;24.30;18.33;;;20.20;35.00;;;;;;5014963;28;20276;-87
2022/03/28 11:04:24;;;;;;;23.40;17.85;;;20.40;35.40;;;;;;5005143;28;20623;-90
2022/03/28 11:07:06;;;;;;;23.48;17.50;;;20.20;34.30;;;;;;4996760;28;20344;-87
2022/03/28 11:09:48;;;;;;;23.45;17.08;;;19.90;35.40;;;;;;5004236;28;20718;-88
2022/03/28 11:12:17;;;;;;;19.80;16.45;;;20.30;35.30;;;;;;5017639;28;20335;-85
2022/03/28 11:14:52;;;;;;;22.73;17.17;;;20.10;35.10;;;;;;5031659;28;20193;-88
2022/03/28 11:17:20;;;;;;;20.45;18.25;;;20.50;34.10;;;;;;5005781;28;20667;-88
2022/03/28 11:19:53;;;;;;;23.10;17.38;;;21.10;33.10;;;;;;5001170;28;20205;-87
2022/03/28 11:22:18;;;;;;;22.25;17.38;;;21.10;33.20;;;;;;4999978;28;20205;-87
2022/03/28 11:24:56;;;;;;;22.50;17.13;;;21.20;33.30;;;;;;5013973;28;20198;-89
2022/03/28 11:27:30;;;;;;;24.77;18.30;;;21.50;32.50;;;;;;5010704;28;20205;-87
2022/03/28 11:30:11;;;;;;;22.08;18.17;;;21.90;31.20;;;;;;5002806;28;20216;-88
2022/03/28 11:32:39;;;;;;;26.83;17.60;;;21.80;30.60;;;;;;5003001;28;20180;-89
2022/03/28 11:35:09;;;;;;;22.75;17.10;;;21.30;32.10;;;;;;5023783;28;20181;-86
2022/03/28 11:37:35;;;;;;;23.88;17.92;;;21.50;32.10;;;;;;5021601;28;20665;-87
2022/03/28 11:40:07;;;;;;;18.40;15.40;;;21.80;29.20;;;;;;5006022;28;20224;-87
2022/03/28 11:42:34;;;;;;;21.20;17.48;;;22.00;29.50;;;;;;5001527;28;20218;-88
2022/03/28 11:45:08;;;;;;;25.80;17.58;;;22.20;29.40;;;;;;5006591;28;20212;-87
2022/03/28 11:47:36;;;;;;;21.83;17.20;;;22.30;29.80;;;;;;5007572;28;20272;-88
2022/03/28 11:50:04;;;;;;;21.10;16.73;;;22.30;29.20;;;;;;4987507;28;20350;-87
2022/03/28 11:52:31;;;;;;;21.92;16.77;;;21.80;29.40;;;;;;5013527;28;20198;-87
2022/03/28 11:54:58;;;;;;;18.70;16.70;;;22.20;29.00;;;;;;5014737;28;20869;-88
2022/03/28 12:00:21;;;;;;;17.60;15.80;;;22.90;27.70;;;;;;5004625;28;20212;-87
2022/03/28 12:02:51;;;;;;;21.88;15.50;;;22.90;27.60;;;;;;5013569;28;20244;-87
2022/03/28 12:05:28;;;;;;;17.60;15.77;;;23.10;26.30;;;;;;5001431;28;20203;-88
2022/03/28 12:07:55;;;;;;;18.35;16.50;;;23.30;27.90;;;;;;4986200;28;20205;-87
2022/03/28 12:10:28;;;;;;;17.50;15.60;;;23.80;27.10;;;;;;5011491;28;20244;-87
2022/03/28 12:12:57;;;;;;;18.38;15.82;;;24.20;26.50;;;;;;5013828;28;20196;-89
2022/03/28 12:15:24;;;;;;;19.55;17.08;;;24.10;26.50;;;;;;5013876;28;20185;-87
2022/03/28 12:17:54;;;;;;;29.67;16.85;;;24.30;26.60;;;;;;5001966;28;20621;-88
2022/03/28 12:20:25;;;;;;;21.45;16.95;;;24.40;26.10;;;;;;5008269;28;20542;-88
2022/03/28 12:22:51;;;;;;;22.20;16.83;;;24.40;26.40;;;;;;4998419;28;20661;-88
2022/03/28 12:25:35;;;;;;;18.33;16.52;;;24.50;26.40;;;;;;4997109;28;20170;-88
2022/03/28 12:28:11;;;;;;;22.60;16.70;;;24.70;26.10;;;;;;4997720;28;20249;-88
2022/03/28 12:30:52;;;;;;;19.20;15.80;;;25.00;26.10;;;;;;5005091;28;20695;-88
2022/03/28 12:33:18;;;;;;;22.65;17.33;;;25.30;25.90;;;;;;5009582;28;20193;-88
2022/03/28 12:35:55;;;;;;;17.35;15.63;;;24.80;26.50;;;;;;5008423;28;20618;-88
2022/03/28 12:38:27;;;;;;;17.77;15.88;;;24.90;25.50;;;;;;5010197;28;20261;-88
2022/03/28 12:40:55;;;;;;;18.92;15.50;;;24.50;25.70;;;;;;5015875;28;20257;-87